DLH44C EDDF-LPPR
Flight info
| Callsign | DLH44C |
|---|---|
| Flight time | 2h 24m |
| Altitude | 30000 |
| Route | SOBRA2L/18 SOBRA Y180 DIK UN857 TOLVU DCT RAPOR DCT GIMER DCT ESTOC UT300 PON UN872 ERIGA UZ218 FUJTI DCT ATLEN DCT INSID T326 ASPOR |
| Aircraft | A321/M-SDE2E3FGIJ1LORWXYZ/HB1 |
Departure
| Time | 2026-04-14 09:54 |
|---|---|
| Airport | Frankfurt Main Airport (EDDF) |
Arrival
| Time | 2026-04-14 12:18 |
|---|---|
| Airport | Francisco de Sá Carneiro Airport (LPPR) |
| Time | Latitude | Longitude | Altitude | Speed | Heading |
|---|---|---|---|---|---|
| 2026-04-14 09:02 | 50.04650 | 8.56025 | 356 ft | 0 kts | 339° |
| 2026-04-14 09:37 | 50.04635 | 8.56034 | 362 ft | 4 kts | 334° |
| 2026-04-14 09:37 | 50.04612 | 8.56055 | 365 ft | 4 kts | 320° |
| 2026-04-14 09:37 | 50.04594 | 8.56085 | 361 ft | 4 kts | 293° |
| 2026-04-14 09:37 | 50.04591 | 8.56118 | 364 ft | 1 kts | 250° |
| 2026-04-14 09:38 | 50.04588 | 8.56104 | 360 ft | 4 kts | 250° |
| 2026-04-14 09:38 | 50.04578 | 8.56065 | 356 ft | 4 kts | 250° |
| 2026-04-14 09:38 | 50.04575 | 8.56052 | 356 ft | 0 kts | 250° |
| 2026-04-14 09:44 | 50.04574 | 8.56049 | 356 ft | 1 kts | 250° |
| 2026-04-14 09:44 | 50.04570 | 8.56030 | 362 ft | 3 kts | 250° |
| 2026-04-14 09:45 | 50.04561 | 8.55995 | 356 ft | 4 kts | 243° |
| 2026-04-14 09:45 | 50.04537 | 8.55962 | 363 ft | 5 kts | 208° |
| 2026-04-14 09:45 | 50.04501 | 8.55939 | 359 ft | 6 kts | 202° |
| 2026-04-14 09:45 | 50.04462 | 8.55917 | 360 ft | 6 kts | 199° |
| 2026-04-14 09:46 | 50.04415 | 8.55905 | 359 ft | 8 kts | 181° |
| 2026-04-14 09:46 | 50.04356 | 8.55922 | 362 ft | 10 kts | 162° |
| 2026-04-14 09:46 | 50.04283 | 8.55958 | 357 ft | 12 kts | 168° |
| 2026-04-14 09:46 | 50.04224 | 8.55874 | 358 ft | 14 kts | 249° |
| 2026-04-14 09:47 | 50.04189 | 8.55727 | 357 ft | 15 kts | 249° |
| 2026-04-14 09:47 | 50.04150 | 8.55565 | 358 ft | 17 kts | 249° |
| 2026-04-14 09:47 | 50.04107 | 8.55387 | 352 ft | 18 kts | 250° |
| 2026-04-14 09:47 | 50.04065 | 8.55212 | 359 ft | 18 kts | 250° |
| 2026-04-14 09:48 | 50.04022 | 8.55028 | 360 ft | 19 kts | 249° |
| 2026-04-14 09:48 | 50.03974 | 8.54831 | 351 ft | 21 kts | 250° |
| 2026-04-14 09:48 | 50.03922 | 8.54611 | 356 ft | 22 kts | 250° |
| 2026-04-14 09:48 | 50.03874 | 8.54416 | 353 ft | 19 kts | 248° |
| 2026-04-14 09:49 | 50.03804 | 8.54232 | 356 ft | 21 kts | 246° |
| 2026-04-14 09:49 | 50.03750 | 8.54018 | 349 ft | 22 kts | 250° |
| 2026-04-14 09:49 | 50.03696 | 8.53790 | 344 ft | 23 kts | 250° |
| 2026-04-14 09:49 | 50.03646 | 8.53588 | 345 ft | 19 kts | 248° |
| 2026-04-14 09:50 | 50.03596 | 8.53385 | 338 ft | 21 kts | 249° |
| 2026-04-14 09:50 | 50.03543 | 8.53166 | 335 ft | 22 kts | 249° |
| 2026-04-14 09:50 | 50.03488 | 8.52938 | 334 ft | 17 kts | 249° |
| 2026-04-14 09:50 | 50.03454 | 8.52811 | 333 ft | 10 kts | 247° |
| 2026-04-14 09:51 | 50.03435 | 8.52738 | 333 ft | 1 kts | 248° |
| 2026-04-14 09:51 | 50.03434 | 8.52737 | 333 ft | 0 kts | 248° |
| 2026-04-14 09:52 | 50.03434 | 8.52734 | 331 ft | 1 kts | 248° |
| 2026-04-14 09:52 | 50.03427 | 8.52709 | 332 ft | 5 kts | 248° |
| 2026-04-14 09:52 | 50.03410 | 8.52644 | 334 ft | 7 kts | 248° |
| 2026-04-14 09:53 | 50.03370 | 8.52595 | 334 ft | 8 kts | 189° |
| 2026-04-14 09:53 | 50.03306 | 8.52595 | 333 ft | 12 kts | 179° |
| 2026-04-14 09:53 | 50.03040 | 8.52598 | 331 ft | 75 kts | 179° |
| 2026-04-14 09:53 | 50.02268 | 8.52605 | 333 ft | 141 kts | 180° |
| 2026-04-14 09:54 | 50.01140 | 8.52622 | 482 ft | 177 kts | 177° |
| 2026-04-14 09:54 | 49.99914 | 8.52634 | 1315 ft | 171 kts | 179° |
| 2026-04-14 09:54 | 49.98727 | 8.52680 | 1958 ft | 179 kts | 178° |
| 2026-04-14 09:54 | 49.97430 | 8.52775 | 2394 ft | 194 kts | 176° |
| 2026-04-14 09:55 | 49.96037 | 8.52914 | 2853 ft | 206 kts | 176° |
| 2026-04-14 09:55 | 49.94556 | 8.53075 | 3221 ft | 221 kts | 175° |
| 2026-04-14 09:55 | 49.92947 | 8.53241 | 3511 ft | 240 kts | 175° |
| 2026-04-14 09:55 | 49.91246 | 8.53353 | 4028 ft | 247 kts | 178° |
| 2026-04-14 09:56 | 49.89527 | 8.53430 | 4704 ft | 248 kts | 178° |
| 2026-04-14 09:56 | 49.87803 | 8.53511 | 5374 ft | 248 kts | 180° |
| 2026-04-14 09:56 | 49.86101 | 8.53077 | 5874 ft | 255 kts | 202° |
| 2026-04-14 09:56 | 49.84406 | 8.51929 | 6196 ft | 275 kts | 204° |
| 2026-04-14 09:57 | 49.82595 | 8.50805 | 6777 ft | 283 kts | 202° |
| 2026-04-14 09:57 | 49.80738 | 8.49721 | 7120 ft | 286 kts | 201° |
| 2026-04-14 09:57 | 49.78884 | 8.48677 | 7147 ft | 283 kts | 203° |
| 2026-04-14 09:57 | 49.77256 | 8.47057 | 7169 ft | 278 kts | 228° |
| 2026-04-14 09:58 | 49.76251 | 8.44526 | 7539 ft | 278 kts | 253° |
| 2026-04-14 09:58 | 49.75998 | 8.41584 | 8303 ft | 277 kts | 276° |
| 2026-04-14 09:58 | 49.76380 | 8.38669 | 9080 ft | 277 kts | 284° |
| 2026-04-14 09:58 | 49.76845 | 8.35762 | 9825 ft | 280 kts | 283° |
| 2026-04-14 09:59 | 49.77320 | 8.32815 | 10398 ft | 288 kts | 283° |
| 2026-04-14 09:59 | 49.77823 | 8.29690 | 10538 ft | 311 kts | 283° |
| 2026-04-14 09:59 | 49.78361 | 8.26349 | 10759 ft | 327 kts | 283° |
| 2026-04-14 09:59 | 49.78918 | 8.22902 | 11276 ft | 333 kts | 283° |
| 2026-04-14 10:00 | 49.79483 | 8.19401 | 11862 ft | 337 kts | 283° |
| 2026-04-14 10:00 | 49.80053 | 8.15869 | 12485 ft | 340 kts | 283° |
| 2026-04-14 10:00 | 49.80626 | 8.12303 | 13071 ft | 343 kts | 282° |
| 2026-04-14 10:00 | 49.81198 | 8.08702 | 13690 ft | 345 kts | 282° |
| 2026-04-14 10:01 | 49.81769 | 8.05076 | 14273 ft | 348 kts | 282° |
| 2026-04-14 10:01 | 49.82341 | 8.01423 | 14807 ft | 351 kts | 282° |
| 2026-04-14 10:01 | 49.82920 | 7.97741 | 15337 ft | 354 kts | 282° |
| 2026-04-14 10:01 | 49.83507 | 7.94022 | 15857 ft | 357 kts | 282° |
| 2026-04-14 10:02 | 49.84097 | 7.90269 | 16393 ft | 360 kts | 282° |
| 2026-04-14 10:02 | 49.84688 | 7.86486 | 16926 ft | 363 kts | 282° |
| 2026-04-14 10:02 | 49.85283 | 7.82666 | 17433 ft | 366 kts | 282° |
| 2026-04-14 10:02 | 49.85883 | 7.78809 | 17935 ft | 370 kts | 282° |
| 2026-04-14 10:03 | 49.86490 | 7.74925 | 18428 ft | 373 kts | 282° |
| 2026-04-14 10:03 | 49.87112 | 7.71004 | 18874 ft | 376 kts | 283° |
| 2026-04-14 10:03 | 49.87735 | 7.67068 | 19345 ft | 377 kts | 283° |
| 2026-04-14 10:03 | 49.88354 | 7.63112 | 19805 ft | 379 kts | 283° |
| 2026-04-14 10:04 | 49.88971 | 7.59123 | 20243 ft | 381 kts | 282° |
| 2026-04-14 10:04 | 49.89581 | 7.55164 | 20680 ft | 383 kts | 282° |
| 2026-04-14 10:04 | 49.90209 | 7.51078 | 21113 ft | 386 kts | 282° |
| 2026-04-14 10:04 | 49.90830 | 7.47017 | 21533 ft | 388 kts | 282° |
| 2026-04-14 10:05 | 49.91446 | 7.42986 | 21956 ft | 390 kts | 282° |
| 2026-04-14 10:05 | 49.92070 | 7.38876 | 22372 ft | 392 kts | 282° |
| 2026-04-14 10:05 | 49.92694 | 7.34743 | 22805 ft | 395 kts | 282° |
| 2026-04-14 10:05 | 49.93321 | 7.30587 | 23221 ft | 397 kts | 282° |
| 2026-04-14 10:06 | 49.93961 | 7.26352 | 23647 ft | 398 kts | 283° |
| 2026-04-14 10:06 | 49.94595 | 7.22169 | 24038 ft | 400 kts | 283° |
| 2026-04-14 10:06 | 49.95224 | 7.18008 | 24368 ft | 402 kts | 283° |
| 2026-04-14 10:06 | 49.95870 | 7.13725 | 24707 ft | 404 kts | 283° |
| 2026-04-14 10:07 | 49.96510 | 7.09464 | 25039 ft | 406 kts | 283° |
| 2026-04-14 10:07 | 49.97151 | 7.05173 | 25387 ft | 408 kts | 283° |
| 2026-04-14 10:07 | 49.97787 | 7.00891 | 25747 ft | 410 kts | 283° |
| 2026-04-14 10:07 | 49.98422 | 6.96601 | 26092 ft | 412 kts | 283° |
| 2026-04-14 10:08 | 49.99027 | 6.92249 | 26464 ft | 414 kts | 279° |
| 2026-04-14 10:08 | 49.99247 | 6.87785 | 26809 ft | 416 kts | 269° |
| 2026-04-14 10:08 | 49.99121 | 6.83279 | 27130 ft | 418 kts | 268° |
| 2026-04-14 10:08 | 49.98981 | 6.78760 | 27469 ft | 419 kts | 268° |
| 2026-04-14 10:09 | 49.98844 | 6.74230 | 27811 ft | 421 kts | 268° |
| 2026-04-14 10:09 | 49.98707 | 6.69672 | 28147 ft | 423 kts | 268° |
| 2026-04-14 10:09 | 49.98568 | 6.65096 | 28471 ft | 425 kts | 269° |
| 2026-04-14 10:09 | 49.98421 | 6.60508 | 28772 ft | 427 kts | 266° |
| 2026-04-14 10:10 | 49.97955 | 6.55943 | 29053 ft | 430 kts | 257° |
| 2026-04-14 10:10 | 49.97007 | 6.51515 | 29345 ft | 434 kts | 249° |
| 2026-04-14 10:10 | 49.95791 | 6.47208 | 29639 ft | 436 kts | 248° |
| 2026-04-14 10:10 | 49.94574 | 6.42882 | 29921 ft | 438 kts | 248° |
| 2026-04-14 10:11 | 49.93357 | 6.38539 | 30139 ft | 440 kts | 248° |
| 2026-04-14 10:11 | 49.92150 | 6.34255 | 30181 ft | 426 kts | 249° |
| 2026-04-14 10:11 | 49.90973 | 6.30088 | 30182 ft | 419 kts | 249° |
| 2026-04-14 10:12 | 49.88609 | 6.21856 | 30186 ft | 417 kts | 249° |
| 2026-04-14 10:12 | 49.86231 | 6.13665 | 30192 ft | 418 kts | 245° |
| 2026-04-14 10:13 | 49.83001 | 6.06133 | 30191 ft | 421 kts | 237° |
| 2026-04-14 10:13 | 49.79607 | 5.98760 | 30188 ft | 421 kts | 237° |
| 2026-04-14 10:14 | 49.76196 | 5.91396 | 30187 ft | 421 kts | 237° |
| 2026-04-14 10:14 | 49.73365 | 5.83581 | 30168 ft | 414 kts | 254° |
| 2026-04-14 10:15 | 49.71442 | 5.75185 | 30167 ft | 416 kts | 254° |
| 2026-04-14 10:15 | 49.69488 | 5.66766 | 30168 ft | 416 kts | 254° |
| 2026-04-14 10:16 | 49.67521 | 5.58349 | 30178 ft | 417 kts | 254° |
| 2026-04-14 10:16 | 49.65536 | 5.49933 | 30188 ft | 418 kts | 253° |
| 2026-04-14 10:17 | 49.63543 | 5.41510 | 30191 ft | 418 kts | 253° |
| 2026-04-14 10:17 | 49.61589 | 5.33081 | 30175 ft | 417 kts | 256° |
| 2026-04-14 10:18 | 49.58909 | 5.20360 | 30187 ft | 418 kts | 258° |
| 2026-04-14 10:18 | 49.57339 | 5.11755 | 30190 ft | 417 kts | 260° |
| 2026-04-14 10:19 | 49.55890 | 5.03105 | 30193 ft | 417 kts | 260° |
| 2026-04-14 10:19 | 49.54653 | 4.95930 | 30203 ft | 418 kts | 259° |
| 2026-04-14 10:20 | 49.53108 | 4.87308 | 30186 ft | 418 kts | 260° |
| 2026-04-14 10:20 | 49.51545 | 4.78684 | 30196 ft | 418 kts | 260° |
| 2026-04-14 10:21 | 49.49988 | 4.70071 | 30204 ft | 418 kts | 260° |
| 2026-04-14 10:21 | 49.48425 | 4.61455 | 30216 ft | 418 kts | 260° |
| 2026-04-14 10:22 | 49.46853 | 4.52847 | 30216 ft | 418 kts | 260° |
| 2026-04-14 10:22 | 49.45274 | 4.44243 | 30231 ft | 418 kts | 260° |
| 2026-04-14 10:23 | 49.43688 | 4.35653 | 30231 ft | 418 kts | 260° |
| 2026-04-14 10:23 | 49.42093 | 4.27078 | 30226 ft | 417 kts | 260° |
| 2026-04-14 10:24 | 49.40500 | 4.18504 | 30226 ft | 417 kts | 260° |
| 2026-04-14 10:24 | 49.38907 | 4.09942 | 30226 ft | 417 kts | 260° |
| 2026-04-14 10:25 | 49.37305 | 4.01382 | 30222 ft | 417 kts | 260° |
| 2026-04-14 10:25 | 49.35775 | 3.92812 | 30222 ft | 415 kts | 262° |
| 2026-04-14 10:26 | 49.34558 | 3.84179 | 30222 ft | 414 kts | 264° |
| 2026-04-14 10:26 | 49.33419 | 3.75534 | 30221 ft | 414 kts | 264° |
| 2026-04-14 10:27 | 49.32232 | 3.67020 | 30219 ft | 414 kts | 263° |
| 2026-04-14 10:27 | 49.30968 | 3.58403 | 30214 ft | 415 kts | 263° |
| 2026-04-14 10:28 | 49.29690 | 3.49784 | 30193 ft | 414 kts | 264° |
| 2026-04-14 10:28 | 49.28425 | 3.41177 | 30216 ft | 414 kts | 264° |
| 2026-04-14 10:29 | 49.27160 | 3.32570 | 30216 ft | 414 kts | 264° |
| 2026-04-14 10:29 | 49.25887 | 3.23974 | 30208 ft | 414 kts | 264° |
| 2026-04-14 10:30 | 49.24601 | 3.15377 | 30206 ft | 415 kts | 264° |
| 2026-04-14 10:30 | 49.23314 | 3.06836 | 30182 ft | 415 kts | 265° |
| 2026-04-14 10:31 | 49.22024 | 2.98242 | 30199 ft | 415 kts | 265° |
| 2026-04-14 10:31 | 49.20724 | 2.89649 | 30208 ft | 415 kts | 265° |
| 2026-04-14 10:32 | 49.19416 | 2.81062 | 30214 ft | 415 kts | 265° |
| 2026-04-14 10:32 | 49.18097 | 2.72482 | 30217 ft | 415 kts | 265° |
| 2026-04-14 10:33 | 49.16770 | 2.63907 | 30187 ft | 415 kts | 265° |
| 2026-04-14 10:33 | 49.15438 | 2.55354 | 30225 ft | 413 kts | 265° |
| 2026-04-14 10:34 | 49.13447 | 2.42566 | 30224 ft | 412 kts | 265° |
| 2026-04-14 10:35 | 49.12452 | 2.34044 | 30234 ft | 405 kts | 271° |
| 2026-04-14 10:35 | 49.11674 | 2.25528 | 30227 ft | 405 kts | 271° |
| 2026-04-14 10:36 | 49.10887 | 2.17016 | 30199 ft | 405 kts | 270° |
| 2026-04-14 10:36 | 49.10080 | 2.08528 | 30228 ft | 404 kts | 270° |
| 2026-04-14 10:37 | 49.08594 | 2.00151 | 30235 ft | 420 kts | 254° |
| 2026-04-14 10:37 | 49.06153 | 1.92055 | 30228 ft | 420 kts | 254° |
| 2026-04-14 10:38 | 49.03729 | 1.84003 | 30171 ft | 421 kts | 254° |
| 2026-04-14 10:38 | 49.01275 | 1.75888 | 30168 ft | 422 kts | 254° |
| 2026-04-14 10:39 | 48.98819 | 1.67788 | 30190 ft | 421 kts | 253° |
| 2026-04-14 10:39 | 48.96352 | 1.59709 | 30204 ft | 421 kts | 253° |
| 2026-04-14 10:40 | 48.93894 | 1.51640 | 30201 ft | 420 kts | 253° |
| 2026-04-14 10:40 | 48.91436 | 1.43592 | 30201 ft | 420 kts | 253° |
| 2026-04-14 10:41 | 48.88961 | 1.35560 | 30201 ft | 420 kts | 253° |
| 2026-04-14 10:41 | 48.86484 | 1.27539 | 30186 ft | 419 kts | 253° |
| 2026-04-14 10:42 | 48.84011 | 1.19551 | 30204 ft | 417 kts | 253° |
| 2026-04-14 10:42 | 48.81544 | 1.11589 | 30205 ft | 416 kts | 253° |
| 2026-04-14 10:43 | 48.79083 | 1.03652 | 30200 ft | 415 kts | 253° |
| 2026-04-14 10:43 | 48.76608 | 0.95738 | 30194 ft | 415 kts | 253° |
| 2026-04-14 10:44 | 48.74055 | 0.87879 | 30188 ft | 420 kts | 248° |
| 2026-04-14 10:44 | 48.71010 | 0.80316 | 30180 ft | 420 kts | 247° |
| 2026-04-14 10:45 | 48.67968 | 0.72833 | 30188 ft | 419 kts | 247° |
| 2026-04-14 10:45 | 48.64914 | 0.65330 | 30182 ft | 419 kts | 247° |
| 2026-04-14 10:46 | 48.61858 | 0.57831 | 30175 ft | 419 kts | 247° |
| 2026-04-14 10:46 | 48.58802 | 0.50338 | 30176 ft | 419 kts | 247° |
| 2026-04-14 10:47 | 48.55736 | 0.42850 | 30152 ft | 419 kts | 246° |
| 2026-04-14 10:47 | 48.52668 | 0.35375 | 30177 ft | 418 kts | 246° |
| 2026-04-14 10:48 | 48.49597 | 0.27932 | 30194 ft | 418 kts | 246° |
| 2026-04-14 10:48 | 48.46525 | 0.20502 | 30193 ft | 417 kts | 246° |
| 2026-04-14 10:49 | 48.43457 | 0.13091 | 30185 ft | 417 kts | 246° |
| 2026-04-14 10:49 | 48.40382 | 0.05679 | 30182 ft | 418 kts | 246° |
| 2026-04-14 10:50 | 48.37297 | -0.01727 | 30126 ft | 418 kts | 245° |
| 2026-04-14 10:50 | 48.34068 | -0.09035 | 30175 ft | 422 kts | 241° |
| 2026-04-14 10:51 | 48.30528 | -0.16095 | 30182 ft | 424 kts | 239° |
| 2026-04-14 10:51 | 48.26926 | -0.23099 | 30187 ft | 423 kts | 239° |
| 2026-04-14 10:52 | 48.23360 | -0.30129 | 30185 ft | 423 kts | 240° |
| 2026-04-14 10:52 | 48.19784 | -0.37144 | 30178 ft | 423 kts | 239° |
| 2026-04-14 10:53 | 48.16198 | -0.44155 | 30173 ft | 424 kts | 239° |
| 2026-04-14 10:53 | 48.12602 | -0.51163 | 30182 ft | 424 kts | 239° |
| 2026-04-14 10:54 | 48.09027 | -0.58121 | 30194 ft | 425 kts | 239° |
| 2026-04-14 10:54 | 48.05418 | -0.65113 | 30193 ft | 425 kts | 239° |
| 2026-04-14 10:55 | 48.01802 | -0.72097 | 30195 ft | 425 kts | 239° |
| 2026-04-14 10:55 | 47.98184 | -0.79076 | 30197 ft | 425 kts | 239° |
| 2026-04-14 10:56 | 47.94561 | -0.86060 | 30169 ft | 425 kts | 239° |
| 2026-04-14 10:56 | 47.90932 | -0.93035 | 30166 ft | 426 kts | 239° |
| 2026-04-14 10:57 | 47.87294 | -1.00002 | 30151 ft | 426 kts | 239° |
| 2026-04-14 10:57 | 47.83649 | -1.06975 | 30154 ft | 427 kts | 238° |
| 2026-04-14 10:58 | 47.79986 | -1.13933 | 30155 ft | 427 kts | 238° |
| 2026-04-14 10:58 | 47.76319 | -1.20891 | 30141 ft | 428 kts | 238° |
| 2026-04-14 10:59 | 47.72645 | -1.27857 | 30121 ft | 429 kts | 238° |
| 2026-04-14 10:59 | 47.68966 | -1.34826 | 30144 ft | 429 kts | 238° |
| 2026-04-14 11:00 | 47.65275 | -1.41767 | 30161 ft | 428 kts | 238° |
| 2026-04-14 11:00 | 47.61586 | -1.48697 | 30158 ft | 428 kts | 238° |
| 2026-04-14 11:01 | 47.57824 | -1.55550 | 30147 ft | 430 kts | 235° |
| 2026-04-14 11:01 | 47.53808 | -1.62144 | 30152 ft | 432 kts | 233° |
| 2026-04-14 11:02 | 47.49719 | -1.68666 | 30120 ft | 432 kts | 233° |
| 2026-04-14 11:02 | 47.45670 | -1.75235 | 30137 ft | 432 kts | 234° |
| 2026-04-14 11:03 | 47.41676 | -1.81793 | 30135 ft | 433 kts | 234° |
| 2026-04-14 11:03 | 47.37645 | -1.88398 | 30135 ft | 433 kts | 234° |
| 2026-04-14 11:04 | 47.33165 | -1.94435 | 30127 ft | 444 kts | 218° |
| 2026-04-14 11:04 | 47.27859 | -1.99184 | 30124 ft | 447 kts | 216° |
| 2026-04-14 11:05 | 47.22543 | -2.03927 | 30127 ft | 447 kts | 216° |
| 2026-04-14 11:05 | 47.17226 | -2.08682 | 30116 ft | 447 kts | 217° |
| 2026-04-14 11:06 | 47.11905 | -2.13424 | 30118 ft | 448 kts | 217° |
| 2026-04-14 11:06 | 47.06632 | -2.18102 | 30142 ft | 447 kts | 216° |
| 2026-04-14 11:07 | 47.01300 | -2.22812 | 30146 ft | 448 kts | 216° |
| 2026-04-14 11:07 | 46.95964 | -2.27513 | 30144 ft | 448 kts | 216° |
| 2026-04-14 11:08 | 46.90628 | -2.32215 | 30147 ft | 448 kts | 216° |
| 2026-04-14 11:08 | 46.85285 | -2.36919 | 30143 ft | 448 kts | 216° |
| 2026-04-14 11:09 | 46.79943 | -2.41621 | 30148 ft | 448 kts | 216° |
| 2026-04-14 11:09 | 46.75505 | -2.45521 | 30126 ft | 448 kts | 217° |
| 2026-04-14 11:10 | 46.67473 | -2.52539 | 30139 ft | 449 kts | 216° |
| 2026-04-14 11:10 | 46.62112 | -2.57195 | 30148 ft | 449 kts | 216° |
| 2026-04-14 11:11 | 46.56752 | -2.61869 | 30143 ft | 449 kts | 216° |
| 2026-04-14 11:11 | 46.51390 | -2.66529 | 30144 ft | 449 kts | 216° |
| 2026-04-14 11:12 | 46.46020 | -2.71169 | 30142 ft | 449 kts | 216° |
| 2026-04-14 11:12 | 46.40647 | -2.75804 | 30144 ft | 449 kts | 216° |
| 2026-04-14 11:13 | 46.35274 | -2.80440 | 30139 ft | 449 kts | 216° |
| 2026-04-14 11:13 | 46.30239 | -2.84769 | 30131 ft | 449 kts | 216° |
| 2026-04-14 11:14 | 46.25074 | -2.89742 | 30137 ft | 442 kts | 226° |
| 2026-04-14 11:14 | 46.20389 | -2.95480 | 30146 ft | 442 kts | 226° |
| 2026-04-14 11:15 | 46.15706 | -3.01211 | 30152 ft | 442 kts | 226° |
| 2026-04-14 11:15 | 46.11014 | -3.06936 | 30144 ft | 442 kts | 226° |
| 2026-04-14 11:16 | 46.06315 | -3.12643 | 30140 ft | 442 kts | 226° |
| 2026-04-14 11:16 | 46.01606 | -3.18346 | 30122 ft | 442 kts | 225° |
| 2026-04-14 11:17 | 45.96896 | -3.24021 | 30150 ft | 441 kts | 226° |
| 2026-04-14 11:17 | 45.92197 | -3.29684 | 30151 ft | 441 kts | 226° |
| 2026-04-14 11:18 | 45.87496 | -3.35338 | 30152 ft | 441 kts | 226° |
| 2026-04-14 11:18 | 45.82801 | -3.40986 | 30151 ft | 441 kts | 225° |
| 2026-04-14 11:19 | 45.78095 | -3.46623 | 30149 ft | 441 kts | 225° |
| 2026-04-14 11:19 | 45.73395 | -3.52251 | 30151 ft | 441 kts | 225° |
| 2026-04-14 11:20 | 45.68691 | -3.57867 | 30139 ft | 440 kts | 225° |
| 2026-04-14 11:20 | 45.63982 | -3.63456 | 30147 ft | 440 kts | 225° |
| 2026-04-14 11:21 | 45.59273 | -3.69040 | 30157 ft | 440 kts | 225° |
| 2026-04-14 11:21 | 45.54571 | -3.74614 | 30158 ft | 439 kts | 225° |
| 2026-04-14 11:22 | 45.49871 | -3.80185 | 30137 ft | 439 kts | 225° |
| 2026-04-14 11:22 | 45.45163 | -3.85733 | 30153 ft | 439 kts | 225° |
| 2026-04-14 11:23 | 45.40450 | -3.91273 | 30148 ft | 439 kts | 225° |
| 2026-04-14 11:23 | 45.35744 | -3.96794 | 30161 ft | 438 kts | 225° |
| 2026-04-14 11:24 | 45.31047 | -4.02291 | 30155 ft | 437 kts | 225° |
| 2026-04-14 11:24 | 45.26388 | -4.07736 | 30155 ft | 437 kts | 225° |
| 2026-04-14 11:25 | 45.21699 | -4.13212 | 30160 ft | 437 kts | 225° |
| 2026-04-14 11:25 | 45.17007 | -4.18680 | 30157 ft | 437 kts | 225° |
| 2026-04-14 11:26 | 45.12302 | -4.24140 | 30161 ft | 437 kts | 225° |
| 2026-04-14 11:26 | 45.07592 | -4.29579 | 30152 ft | 437 kts | 225° |
| 2026-04-14 11:27 | 45.02877 | -4.35017 | 30166 ft | 437 kts | 225° |
| 2026-04-14 11:27 | 44.98165 | -4.40461 | 30161 ft | 438 kts | 225° |
| 2026-04-14 11:28 | 44.93447 | -4.45900 | 30160 ft | 438 kts | 225° |
| 2026-04-14 11:28 | 44.88727 | -4.51327 | 30155 ft | 438 kts | 225° |
| 2026-04-14 11:29 | 44.83987 | -4.56753 | 30160 ft | 439 kts | 224° |
| 2026-04-14 11:29 | 44.79306 | -4.62103 | 30168 ft | 437 kts | 224° |
| 2026-04-14 11:30 | 44.74591 | -4.67492 | 30187 ft | 437 kts | 224° |
| 2026-04-14 11:30 | 44.69874 | -4.72857 | 30184 ft | 436 kts | 224° |
| 2026-04-14 11:31 | 44.65159 | -4.78195 | 30185 ft | 435 kts | 224° |
| 2026-04-14 11:31 | 44.60452 | -4.83527 | 30183 ft | 435 kts | 224° |
| 2026-04-14 11:32 | 44.55750 | -4.88856 | 30184 ft | 434 kts | 224° |
| 2026-04-14 11:32 | 44.51041 | -4.94172 | 30182 ft | 434 kts | 224° |
| 2026-04-14 11:33 | 44.46212 | -4.99292 | 30175 ft | 436 kts | 220° |
| 2026-04-14 11:34 | 44.38774 | -5.06604 | 30186 ft | 435 kts | 220° |
| 2026-04-14 11:34 | 44.33831 | -5.11496 | 30202 ft | 435 kts | 220° |
| 2026-04-14 11:35 | 44.28950 | -5.16380 | 30193 ft | 434 kts | 220° |
| 2026-04-14 11:35 | 44.24041 | -5.21292 | 30190 ft | 434 kts | 220° |
| 2026-04-14 11:36 | 44.19124 | -5.26197 | 30184 ft | 435 kts | 220° |
| 2026-04-14 11:36 | 44.14201 | -5.31096 | 30189 ft | 435 kts | 220° |
| 2026-04-14 11:37 | 44.09272 | -5.35975 | 30188 ft | 434 kts | 220° |
| 2026-04-14 11:37 | 44.04351 | -5.40832 | 30202 ft | 433 kts | 220° |
| 2026-04-14 11:38 | 43.99445 | -5.45690 | 30206 ft | 433 kts | 220° |
| 2026-04-14 11:38 | 43.94536 | -5.50527 | 30206 ft | 432 kts | 220° |
| 2026-04-14 11:39 | 43.89633 | -5.55341 | 30206 ft | 432 kts | 220° |
| 2026-04-14 11:39 | 43.84728 | -5.60149 | 30204 ft | 432 kts | 220° |
| 2026-04-14 11:40 | 43.79882 | -5.64911 | 30207 ft | 432 kts | 220° |
| 2026-04-14 11:40 | 43.74971 | -5.69720 | 30204 ft | 433 kts | 220° |
| 2026-04-14 11:41 | 43.70051 | -5.74514 | 30204 ft | 432 kts | 219° |
| 2026-04-14 11:41 | 43.65144 | -5.79291 | 30206 ft | 431 kts | 219° |
| 2026-04-14 11:42 | 43.60266 | -5.84023 | 30211 ft | 432 kts | 219° |
| 2026-04-14 11:42 | 43.55354 | -5.88788 | 30226 ft | 431 kts | 219° |
| 2026-04-14 11:43 | 43.50442 | -5.93533 | 30229 ft | 431 kts | 219° |
| 2026-04-14 11:43 | 43.45529 | -5.98283 | 30220 ft | 431 kts | 219° |
| 2026-04-14 11:44 | 43.40611 | -6.03029 | 30211 ft | 432 kts | 219° |
| 2026-04-14 11:44 | 43.35687 | -6.07767 | 30210 ft | 433 kts | 219° |
| 2026-04-14 11:45 | 43.30757 | -6.12505 | 30211 ft | 432 kts | 219° |
| 2026-04-14 11:45 | 43.25828 | -6.17215 | 30216 ft | 431 kts | 219° |
| 2026-04-14 11:46 | 43.20901 | -6.21914 | 30218 ft | 432 kts | 219° |
| 2026-04-14 11:46 | 43.15971 | -6.26621 | 30234 ft | 432 kts | 219° |
| 2026-04-14 11:47 | 43.11040 | -6.31323 | 30239 ft | 432 kts | 219° |
| 2026-04-14 11:47 | 43.06109 | -6.36008 | 30242 ft | 432 kts | 219° |
| 2026-04-14 11:48 | 43.01174 | -6.40692 | 30238 ft | 432 kts | 219° |
| 2026-04-14 11:48 | 42.96241 | -6.45366 | 30243 ft | 432 kts | 219° |
| 2026-04-14 11:49 | 42.91296 | -6.50032 | 30249 ft | 432 kts | 219° |
| 2026-04-14 11:49 | 42.86357 | -6.54687 | 30254 ft | 431 kts | 219° |
| 2026-04-14 11:50 | 42.81424 | -6.59326 | 30244 ft | 431 kts | 219° |
| 2026-04-14 11:50 | 42.76518 | -6.63928 | 30246 ft | 431 kts | 219° |
| 2026-04-14 11:51 | 42.69100 | -6.70873 | 30250 ft | 432 kts | 219° |
| 2026-04-14 11:51 | 42.64152 | -6.75498 | 30254 ft | 431 kts | 219° |
| 2026-04-14 11:52 | 42.59209 | -6.80113 | 30255 ft | 431 kts | 219° |
| 2026-04-14 11:52 | 42.54254 | -6.84718 | 30250 ft | 432 kts | 219° |
| 2026-04-14 11:53 | 42.49311 | -6.89308 | 30261 ft | 431 kts | 219° |
| 2026-04-14 11:53 | 42.44369 | -6.93887 | 30268 ft | 430 kts | 219° |
| 2026-04-14 11:54 | 42.39431 | -6.98459 | 30255 ft | 430 kts | 219° |
| 2026-04-14 11:54 | 42.34495 | -7.03019 | 30257 ft | 430 kts | 219° |
| 2026-04-14 11:55 | 42.29619 | -7.07564 | 29901 ft | 416 kts | 223° |
| 2026-04-14 11:55 | 42.27528 | -7.10167 | 29623 ft | 402 kts | 233° |
| 2026-04-14 11:55 | 42.25870 | -7.13072 | 29231 ft | 391 kts | 243° |
| 2026-04-14 11:56 | 42.24458 | -7.16165 | 28837 ft | 384 kts | 243° |
| 2026-04-14 11:56 | 42.23042 | -7.19258 | 28438 ft | 380 kts | 243° |
| 2026-04-14 11:56 | 42.21679 | -7.22219 | 28054 ft | 374 kts | 243° |
| 2026-04-14 11:56 | 42.20312 | -7.25180 | 27683 ft | 369 kts | 243° |
| 2026-04-14 11:57 | 42.18961 | -7.28100 | 27301 ft | 365 kts | 243° |
| 2026-04-14 11:57 | 42.17627 | -7.30981 | 26941 ft | 360 kts | 243° |
| 2026-04-14 11:57 | 42.16311 | -7.33815 | 26582 ft | 354 kts | 243° |
| 2026-04-14 11:57 | 42.15014 | -7.36614 | 26217 ft | 350 kts | 243° |
| 2026-04-14 11:58 | 42.13735 | -7.39374 | 25859 ft | 346 kts | 243° |
| 2026-04-14 11:58 | 42.12467 | -7.42113 | 25501 ft | 344 kts | 243° |
| 2026-04-14 11:58 | 42.11205 | -7.44839 | 25128 ft | 342 kts | 243° |
| 2026-04-14 11:58 | 42.09953 | -7.47543 | 24764 ft | 340 kts | 243° |
| 2026-04-14 11:59 | 42.08704 | -7.50235 | 24386 ft | 338 kts | 242° |
| 2026-04-14 11:59 | 42.07458 | -7.52910 | 24009 ft | 336 kts | 242° |
| 2026-04-14 11:59 | 42.06213 | -7.55572 | 23593 ft | 335 kts | 242° |
| 2026-04-14 11:59 | 42.04979 | -7.58214 | 23191 ft | 333 kts | 242° |
| 2026-04-14 12:00 | 42.03753 | -7.60840 | 22799 ft | 331 kts | 243° |
| 2026-04-14 12:00 | 42.02531 | -7.63457 | 22421 ft | 330 kts | 243° |
| 2026-04-14 12:00 | 42.01726 | -7.65182 | 22168 ft | 329 kts | 243° |
| 2026-04-14 12:00 | 42.00513 | -7.67778 | 21787 ft | 327 kts | 243° |
| 2026-04-14 12:01 | 41.99306 | -7.70354 | 21409 ft | 325 kts | 242° |
| 2026-04-14 12:01 | 41.98104 | -7.72915 | 21033 ft | 323 kts | 242° |
| 2026-04-14 12:01 | 41.96908 | -7.75463 | 20648 ft | 321 kts | 242° |
| 2026-04-14 12:01 | 41.95719 | -7.77997 | 20276 ft | 320 kts | 242° |
| 2026-04-14 12:02 | 41.94537 | -7.80519 | 19889 ft | 318 kts | 242° |
| 2026-04-14 12:02 | 41.93362 | -7.83023 | 19529 ft | 316 kts | 242° |
| 2026-04-14 12:02 | 41.92188 | -7.85520 | 19139 ft | 315 kts | 242° |
| 2026-04-14 12:02 | 41.91021 | -7.88000 | 18764 ft | 314 kts | 242° |
| 2026-04-14 12:03 | 41.89856 | -7.90474 | 18373 ft | 313 kts | 242° |
| 2026-04-14 12:03 | 41.88698 | -7.92933 | 17989 ft | 310 kts | 242° |
| 2026-04-14 12:03 | 41.87547 | -7.95372 | 17613 ft | 309 kts | 242° |
| 2026-04-14 12:03 | 41.86401 | -7.97793 | 17244 ft | 306 kts | 241° |
| 2026-04-14 12:04 | 41.85262 | -8.00199 | 16875 ft | 304 kts | 241° |
| 2026-04-14 12:04 | 41.84127 | -8.02585 | 16510 ft | 303 kts | 241° |
| 2026-04-14 12:04 | 41.83000 | -8.04959 | 16160 ft | 301 kts | 241° |
| 2026-04-14 12:04 | 41.81880 | -8.07319 | 15792 ft | 299 kts | 241° |
| 2026-04-14 12:05 | 41.80783 | -8.09674 | 15427 ft | 297 kts | 242° |
| 2026-04-14 12:05 | 41.79731 | -8.12047 | 15069 ft | 295 kts | 243° |
| 2026-04-14 12:05 | 41.78704 | -8.14425 | 14707 ft | 294 kts | 243° |
| 2026-04-14 12:05 | 41.77687 | -8.16791 | 14351 ft | 293 kts | 243° |
| 2026-04-14 12:06 | 41.76670 | -8.19149 | 13983 ft | 292 kts | 243° |
| 2026-04-14 12:06 | 41.75653 | -8.21492 | 13606 ft | 290 kts | 242° |
| 2026-04-14 12:06 | 41.74641 | -8.23817 | 13250 ft | 288 kts | 242° |
| 2026-04-14 12:06 | 41.73649 | -8.26127 | 12900 ft | 285 kts | 243° |
| 2026-04-14 12:07 | 41.72681 | -8.28421 | 12562 ft | 282 kts | 243° |
| 2026-04-14 12:07 | 41.71722 | -8.30700 | 12212 ft | 280 kts | 243° |
| 2026-04-14 12:07 | 41.70769 | -8.32964 | 11869 ft | 278 kts | 243° |
| 2026-04-14 12:07 | 41.69827 | -8.35210 | 11529 ft | 276 kts | 243° |
| 2026-04-14 12:08 | 41.68890 | -8.37440 | 11186 ft | 274 kts | 243° |
| 2026-04-14 12:08 | 41.67960 | -8.39646 | 10852 ft | 271 kts | 242° |
| 2026-04-14 12:08 | 41.67038 | -8.41834 | 10519 ft | 269 kts | 242° |
| 2026-04-14 12:08 | 41.66121 | -8.44008 | 10185 ft | 268 kts | 242° |
| 2026-04-14 12:09 | 41.65208 | -8.46169 | 9828 ft | 266 kts | 242° |
| 2026-04-14 12:09 | 41.64301 | -8.48309 | 9503 ft | 264 kts | 242° |
| 2026-04-14 12:09 | 41.63399 | -8.50433 | 9164 ft | 261 kts | 242° |
| 2026-04-14 12:09 | 41.62503 | -8.52543 | 8873 ft | 259 kts | 242° |
| 2026-04-14 12:10 | 41.61645 | -8.54560 | 8738 ft | 248 kts | 242° |
| 2026-04-14 12:10 | 41.60791 | -8.56565 | 8480 ft | 243 kts | 241° |
| 2026-04-14 12:10 | 41.59973 | -8.58490 | 8034 ft | 240 kts | 241° |
| 2026-04-14 12:10 | 41.59113 | -8.60412 | 7638 ft | 241 kts | 238° |
| 2026-04-14 12:11 | 41.58207 | -8.62297 | 7302 ft | 241 kts | 237° |
| 2026-04-14 12:11 | 41.57293 | -8.64157 | 6990 ft | 239 kts | 237° |
| 2026-04-14 12:11 | 41.56383 | -8.66002 | 6676 ft | 237 kts | 237° |
| 2026-04-14 12:11 | 41.55482 | -8.67833 | 6363 ft | 235 kts | 237° |
| 2026-04-14 12:12 | 41.54589 | -8.69646 | 6045 ft | 233 kts | 237° |
| 2026-04-14 12:12 | 41.53701 | -8.71457 | 5744 ft | 232 kts | 237° |
| 2026-04-14 12:12 | 41.52785 | -8.73222 | 5441 ft | 231 kts | 227° |
| 2026-04-14 12:12 | 41.51464 | -8.74464 | 4878 ft | 239 kts | 200° |
| 2026-04-14 12:13 | 41.49808 | -8.74705 | 4473 ft | 243 kts | 173° |
| 2026-04-14 12:13 | 41.48152 | -8.74284 | 4161 ft | 242 kts | 169° |
| 2026-04-14 12:13 | 41.46506 | -8.73839 | 3888 ft | 240 kts | 169° |
| 2026-04-14 12:13 | 41.44877 | -8.73406 | 3577 ft | 237 kts | 170° |
| 2026-04-14 12:14 | 41.43273 | -8.72983 | 3290 ft | 234 kts | 170° |
| 2026-04-14 12:14 | 41.41686 | -8.72565 | 2988 ft | 229 kts | 170° |
| 2026-04-14 12:14 | 41.40180 | -8.72167 | 2727 ft | 215 kts | 170° |
| 2026-04-14 12:14 | 41.38736 | -8.71787 | 2479 ft | 209 kts | 170° |
| 2026-04-14 12:15 | 41.37339 | -8.71419 | 2233 ft | 199 kts | 170° |
| 2026-04-14 12:15 | 41.36031 | -8.71074 | 1991 ft | 183 kts | 169° |
| 2026-04-14 12:15 | 41.34841 | -8.70761 | 1789 ft | 165 kts | 170° |
| 2026-04-14 12:15 | 41.33758 | -8.70476 | 1574 ft | 152 kts | 170° |
| 2026-04-14 12:16 | 41.32754 | -8.70212 | 1386 ft | 144 kts | 170° |
| 2026-04-14 12:16 | 41.31782 | -8.69957 | 1204 ft | 142 kts | 171° |
| 2026-04-14 12:16 | 41.30820 | -8.69711 | 1037 ft | 140 kts | 171° |
| 2026-04-14 12:16 | 41.29864 | -8.69474 | 881 ft | 139 kts | 171° |
| 2026-04-14 12:17 | 41.28915 | -8.69222 | 723 ft | 139 kts | 169° |
| 2026-04-14 12:17 | 41.27977 | -8.68957 | 561 ft | 137 kts | 169° |
| 2026-04-14 12:17 | 41.27048 | -8.68713 | 383 ft | 136 kts | 171° |
| 2026-04-14 12:17 | 41.26123 | -8.68469 | 227 ft | 135 kts | 170° |
| 2026-04-14 12:18 | 41.25229 | -8.68237 | 183 ft | 119 kts | 168° |
| 2026-04-14 12:18 | 41.24581 | -8.68067 | 208 ft | 70 kts | 168° |
| 2026-04-14 12:18 | 41.24173 | -8.67961 | 214 ft | 53 kts | 168° |
| 2026-04-14 12:18 | 41.23951 | -8.67902 | 221 ft | 18 kts | 169° |
| 2026-04-14 12:19 | 41.23896 | -8.67797 | 222 ft | 13 kts | 86° |
| 2026-04-14 12:19 | 41.23905 | -8.67729 | 226 ft | 4 kts | 78° |
| 2026-04-14 12:19 | 41.23908 | -8.67713 | 228 ft | 0 kts | 78° |
| 2026-04-14 12:20 | 41.23908 | -8.67711 | 227 ft | 1 kts | 78° |
| 2026-04-14 12:20 | 41.23913 | -8.67677 | 229 ft | 5 kts | 78° |
| 2026-04-14 12:20 | 41.23918 | -8.67645 | 231 ft | 2 kts | 78° |
| 2026-04-14 12:20 | 41.23921 | -8.67628 | 234 ft | 2 kts | 78° |
| 2026-04-14 12:21 | 41.23926 | -8.67592 | 234 ft | 5 kts | 78° |
| 2026-04-14 12:21 | 41.23926 | -8.67550 | 239 ft | 5 kts | 96° |
| 2026-04-14 12:21 | 41.23909 | -8.67505 | 238 ft | 5 kts | 135° |
| 2026-04-14 12:21 | 41.23877 | -8.67490 | 239 ft | 6 kts | 169° |
| 2026-04-14 12:22 | 41.23823 | -8.67477 | 239 ft | 10 kts | 169° |
| 2026-04-14 12:22 | 41.23749 | -8.67439 | 239 ft | 13 kts | 139° |
| 2026-04-14 12:22 | 41.23696 | -8.67360 | 242 ft | 11 kts | 143° |
| 2026-04-14 12:22 | 41.23681 | -8.67295 | 244 ft | 5 kts | 81° |
| 2026-04-14 12:23 | 41.23685 | -8.67261 | 245 ft | 2 kts | 79° |
| 2026-04-14 12:23 | 41.23686 | -8.67255 | 245 ft | 0 kts | 79° |